Time;durP1;ratioP1;P1;durP2;ratioP2;P2;SDS_P1;SDS_P2;PMS_P1;PMS_P2;Temp;Humidity;BMP_temperature;BMP_pressure;BME280_temperature;BME280_humidity;BME280_pressure;Samples;Min_cycle;Max_cycle;Signal;HPM_P1;HPM_P2
2023/06/21 02:47:45;;;;;;;23.20;21.10;;;;;;;19.03;100.00;99659.11;101547;1292;601407;-64
2023/06/21 02:50:16;;;;;;;24.00;21.80;;;;;;;19.29;100.00;99666.70;103675;1270;62357;-63
2023/06/21 02:52:44;;;;;;;26.20;23.60;;;;;;;19.35;100.00;99671.72;103570;1264;60338;-63
2023/06/21 02:55:11;;;;;;;26.60;24.10;;;;;;;19.40;100.00;99667.80;103656;1265;72301;-63
2023/06/21 02:57:39;;;;;;;26.10;23.70;;;;;;;19.42;100.00;99668.33;103943;1270;69259;-63
2023/06/21 03:00:27;;;;;;;28.40;25.40;;;;;;;19.46;100.00;99662.16;104111;1267;72936;-62
2023/06/21 03:03:02;;;;;;;28.60;25.90;;;;;;;19.47;100.00;99662.09;103855;1261;61031;-63
2023/06/21 03:05:30;;;;;;;28.20;25.50;;;;;;;19.50;100.00;99663.84;104075;1259;58963;-64
2023/06/21 03:08:00;;;;;;;30.60;27.40;;;;;;;19.50;100.00;99667.16;104009;1261;72028;-63
2023/06/21 03:10:29;;;;;;;30.30;27.30;;;;;;;19.49;100.00;99669.09;103897;1265;68563;-63
2023/06/21 03:12:57;;;;;;;32.50;29.40;;;;;;;19.54;100.00;99669.02;103934;1266;71529;-63
2023/06/21 03:15:25;;;;;;;31.50;28.50;;;;;;;19.54;100.00;99669.67;103868;1261;61463;-63
2023/06/21 03:17:54;;;;;;;;;;;;;;;19.56;100.00;99673.27;107255;1259;59748;-64
2023/06/21 03:20:24;;;;;;;28.80;25.80;;;;;;;19.57;100.00;99677.31;105894;1260;71864;-63
2023/06/21 03:22:53;;;;;;;31.50;27.00;;;;;;;19.64;100.00;99674.42;104055;1273;70282;-63
2023/06/21 03:25:20;;;;;;;29.60;26.60;;;;;;;19.71;100.00;99675.83;104364;1260;72913;-63
2023/06/21 03:27:50;;;;;;;29.40;26.40;;;;;;;19.76;100.00;99672.28;103912;1273;62050;-63
2023/06/21 03:30:18;;;;;;;;;;;;;;;19.79;100.00;99675.77;104403;1260;59943;-63
2023/06/21 03:32:47;;;;;;;29.30;26.20;;;;;;;19.78;100.00;99677.05;103961;1266;72902;-63
2023/06/21 03:35:17;;;;;;;30.80;27.70;;;;;;;19.81;100.00;99676.25;103972;1263;69587;-64
2023/06/21 03:37:47;;;;;;;30.80;27.80;;;;;;;19.85;100.00;99675.98;103802;1269;72778;-63
2023/06/21 03:40:19;;;;;;;32.20;28.90;;;;;;;19.86;100.00;99676.83;103874;1264;61756;-63
2023/06/21 03:42:46;;;;;;;31.70;28.50;;;;;;;19.89;100.00;99676.39;104016;1263;59816;-63
2023/06/21 03:45:14;;;;;;;32.20;28.90;;;;;;;19.92;100.00;99678.58;103863;1269;73503;-64
2023/06/21 03:47:45;;;;;;;32.50;29.30;;;;;;;19.95;100.00;99685.46;103854;1265;70168;-64
2023/06/21 03:50:13;;;;;;;31.70;28.70;;;;;;;20.03;100.00;99684.14;103970;1273;72687;-63
2023/06/21 03:52:43;;;;;;;33.70;30.10;;;;;;;20.11;100.00;99688.30;104006;1264;62294;-63
2023/06/21 03:55:11;;;;;;;34.20;30.80;;;;;;;20.16;100.00;99690.66;103955;1261;59956;-64
2023/06/21 03:57:39;;;;;;;32.90;29.50;;;;;;;20.19;100.00;99689.75;103950;1266;72869;-64
2023/06/21 04:00:10;;;;;;;;;;;;;;;20.23;100.00;99695.63;104354;1253;69683;-66
2023/06/21 04:02:48;;;;;;;32.80;29.70;;;;;;;20.26;100.00;99694.19;104453;1257;72369;-66
2023/06/21 04:05:16;;;;;;;31.30;28.40;;;;;;;20.32;100.00;99697.97;104404;1255;60377;-65
2023/06/21 04:07:43;;;;;;;31.10;28.30;;;;;;;20.36;100.00;99700.83;104506;1254;59692;-63
2023/06/21 04:10:13;;;;;;;30.60;27.60;;;;;;;20.44;100.00;99704.98;108514;1250;73702;-64
2023/06/21 04:12:41;;;;;;;30.40;27.50;;;;;;;20.51;100.00;99708.98;106816;1253;69298;-64
2023/06/21 04:15:09;;;;;;;32.10;28.80;;;;;;;20.56;100.00;99710.70;104491;1255;73141;-63
2023/06/21 04:17:38;;;;;;;31.60;28.60;;;;;;;20.58;100.00;99709.98;104428;1257;61768;-64
2023/06/21 04:20:10;;;;;;;;;;;;;;;20.65;100.00;99709.30;104421;1251;59747;-62
2023/06/21 04:22:51;;;;;;;29.20;26.40;;;;;;;20.71;100.00;99711.99;104564;1258;74097;-63
2023/06/21 04:25:19;;;;;;;28.80;26.30;;;;;;;20.77;100.00;99711.11;104519;1254;68944;-63
2023/06/21 04:27:47;;;;;;;30.40;27.70;;;;;;;20.87;100.00;99711.23;104359;1254;73496;-63
2023/06/21 04:30:17;;;;;;;30.30;27.80;;;;;;;20.95;100.00;99713.52;104371;1257;61904;-63
2023/06/21 04:32:47;;;;;;;;;;;;;;;21.00;100.00;99717.75;104255;1257;59739;-63
2023/06/21 04:35:16;;;;;;;29.80;27.00;;;;;;;21.02;100.00;99717.27;104463;1256;73244;-64
2023/06/21 04:37:44;;;;;;;29.10;26.50;;;;;;;21.08;100.00;99721.17;104410;1264;68681;-65
2023/06/21 04:40:17;;;;;;;31.20;28.30;;;;;;;21.14;100.00;99727.23;104516;1251;73317;-64
2023/06/21 04:43:01;;;;;;;29.40;26.70;;;;;;;21.17;100.00;99728.41;104394;1254;62357;-64
2023/06/21 04:45:30;;;;;;;29.80;26.70;;;;;;;21.26;100.00;99731.96;104417;1256;59762;-64
2023/06/21 04:47:58;;;;;;;28.10;25.60;;;;;;;21.37;100.00;99733.86;104416;1253;72692;-63
2023/06/21 04:50:26;;;;;;;28.60;26.00;;;;;;;21.48;100.00;99737.89;104414;1257;69039;-64
2023/06/21 04:52:58;;;;;;;29.70;26.90;;;;;;;21.57;100.00;99737.31;104595;1254;73349;-66
2023/06/21 04:55:27;;;;;;;30.70;27.60;;;;;;;21.66;100.00;99728.88;104428;1252;61405;-64
2023/06/21 04:57:56;;;;;;;30.00;27.40;;;;;;;21.77;100.00;99726.80;104433;1257;59721;-63
2023/06/21 05:00:23;;;;;;;29.00;26.50;;;;;;;21.89;100.00;99728.80;104384;1257;73250;-64
2023/06/21 05:02:51;;;;;;;;;;;;;;;21.98;100.00;99729.80;104396;1251;69677;-65
2023/06/21 05:05:20;;;;;;;29.10;26.40;;;;;;;22.05;100.00;99727.38;104356;1269;73349;-65
2023/06/21 05:07:47;;;;;;;;;;;;;;;22.12;100.00;99729.61;104715;1251;61415;-64
2023/06/21 05:10:15;;;;;;;31.00;28.10;;;;;;;22.13;100.00;99728.40;104393;1257;59711;-69
2023/06/21 05:12:43;;;;;;;30.00;27.30;;;;;;;22.14;100.00;99729.73;104412;1257;71928;-65
2023/06/21 05:15:11;;;;;;;32.20;29.30;;;;;;;22.13;100.00;99725.89;104474;1269;69261;-66
2023/06/21 05:17:39;;;;;;;31.00;28.20;;;;;;;22.11;100.00;99726.62;106821;1251;72918;-66
2023/06/21 05:20:08;;;;;;;32.00;28.80;;;;;;;22.16;100.00;99730.88;108418;1251;61447;-67
2023/06/21 05:22:38;;;;;;;29.30;26.60;;;;;;;22.25;100.00;99726.13;105121;1254;59643;-66
2023/06/21 05:25:06;;;;;;;;;;;;;;;22.34;100.00;99724.45;105330;1253;72842;-66
2023/06/21 05:27:33;;;;;;;32.30;28.20;;;;;;;22.38;100.00;99723.23;104974;1251;70369;-65
2023/06/21 05:30:01;;;;;;;30.10;27.30;;;;;;;22.40;100.00;99724.33;104856;1254;72446;-66
2023/06/21 05:32:29;;;;;;;32.10;29.20;;;;;;;22.41;100.00;99723.27;104412;1259;60615;-66
2023/06/21 05:34:57;;;;;;;31.50;28.30;;;;;;;22.47;100.00;99722.73;104834;1257;59786;-63
2023/06/21 05:37:24;;;;;;;;;;;;;;;22.56;100.00;99723.32;104323;1266;72827;-64
2023/06/21 05:39:52;;;;;;;;;;;;;;;22.60;100.00;99725.88;104312;1270;69614;-65
2023/06/21 05:42:20;;;;;;;29.20;26.40;;;;;;;22.61;100.00;99728.26;104359;1269;73856;-65
2023/06/21 05:44:48;;;;;;;27.70;25.30;;;;;;;22.65;100.00;99726.83;104406;1251;61398;-64
2023/06/21 05:47:15;;;;;;;28.30;25.60;;;;;;;22.71;100.00;99725.95;104462;1254;59784;-64
2023/06/21 05:49:43;;;;;;;30.00;27.30;;;;;;;22.78;100.00;99727.20;104445;1269;72774;-65
2023/06/21 05:52:11;;;;;;;29.70;27.20;;;;;;;22.86;100.00;99725.73;104556;1257;69695;-64
2023/06/21 05:54:41;;;;;;;29.60;26.80;;;;;;;22.92;100.00;99732.83;104328;1255;72417;-65
2023/06/21 05:57:10;;;;;;;29.60;26.60;;;;;;;22.98;100.00;99732.69;104369;1256;61826;-63
2023/06/21 05:59:38;;;;;;;31.00;27.90;;;;;;;23.00;100.00;99734.31;104384;1252;59808;-64
2023/06/21 06:02:06;;;;;;;31.00;27.80;;;;;;;23.03;100.00;99740.27;104663;1251;73689;-64
2023/06/21 06:04:34;;;;;;;;;;;;;;;23.08;100.00;99739.83;104327;1273;69132;-63
2023/06/21 06:07:01;;;;;;;30.30;27.30;;;;;;;23.13;100.00;99742.80;104499;1256;72457;-64
2023/06/21 06:09:29;;;;;;;;;;;;;;;23.19;100.00;99746.52;104444;1254;61762;-63
2023/06/21 06:11:57;;;;;;;30.80;28.00;;;;;;;23.28;100.00;99745.85;106676;1251;59637;-63
2023/06/21 06:14:25;;;;;;;29.80;26.80;;;;;;;23.35;100.00;99753.20;106475;1253;73268;-63
2023/06/21 06:16:53;;;;;;;31.80;28.60;;;;;;;23.44;100.00;99748.63;104330;1257;69583;-63
2023/06/21 06:19:21;;;;;;;31.60;28.70;;;;;;;23.51;100.00;99746.98;104623;1257;72731;-63
2023/06/21 06:21:48;;;;;;;31.50;28.50;;;;;;;23.54;100.00;99746.79;104274;1257;61791;-63
2023/06/21 06:24:16;;;;;;;29.70;26.90;;;;;;;23.55;100.00;99747.23;104294;1261;59963;-64
2023/06/21 06:26:44;;;;;;;28.30;25.60;;;;;;;23.62;100.00;99747.77;104476;1269;72916;-64
2023/06/21 06:29:12;;;;;;;;;;;;;;;23.74;100.00;99747.23;104572;1257;70205;-64
2023/06/21 06:31:40;;;;;;;32.10;28.90;;;;;;;23.84;100.00;99749.50;104524;1263;72942;-63
2023/06/21 06:34:07;;;;;;;31.40;28.40;;;;;;;23.89;100.00;99748.09;104328;1256;61482;-63
2023/06/21 06:36:35;;;;;;;29.30;26.50;;;;;;;23.95;100.00;99750.20;104652;1254;60907;-63
2023/06/21 06:39:03;;;;;;;;;;;;;;;24.04;100.00;99747.21;104675;1263;72908;-64
2023/06/21 06:41:32;;;;;;;31.10;28.20;;;;;;;24.13;100.00;99746.48;104334;1264;69472;-63
2023/06/21 06:44:04;;;;;;;31.60;28.30;;;;;;;24.18;100.00;99745.06;104412;1251;72997;-63
2023/06/21 06:46:32;;;;;;;30.20;27.00;;;;;;;24.27;100.00;99743.12;104418;1254;61495;-63
2023/06/21 06:48:59;;;;;;;29.40;26.60;;;;;;;24.30;100.00;99740.35;104471;1251;59745;-63
2023/06/21 06:51:27;;;;;;;;;;;;;;;24.35;100.00;99743.10;104484;1251;73260;-65
2023/06/21 06:53:55;;;;;;;24.70;20.40;;;;;;;24.40;100.00;99742.61;104414;1273;69016;-62
2023/06/21 06:56:23;;;;;;;22.00;19.90;;;;;;;24.49;100.00;99740.63;104409;1257;73335;-62
2023/06/21 06:58:50;;;;;;;22.60;20.40;;;;;;;24.53;100.00;99737.35;104429;1252;62052;-62
2023/06/21 07:01:19;;;;;;;20.90;19.00;;;;;;;24.63;100.00;99735.81;104454;1253;60584;-62
2023/06/21 07:03:47;;;;;;;19.60;17.70;;;;;;;24.69;100.00;99728.58;104426;1256;73672;-62
2023/06/21 07:06:17;;;;;;;19.80;18.00;;;;;;;24.80;100.00;99728.33;104508;1256;69537;-64
2023/06/21 07:08:45;;;;;;;20.60;18.80;;;;;;;24.88;100.00;99720.76;104398;1256;72366;-61
2023/06/21 07:11:12;;;;;;;18.40;16.80;;;;;;;24.97;100.00;99723.69;104438;1254;60892;-61
2023/06/21 07:13:40;;;;;;;19.00;17.50;;;;;;;25.07;100.00;99727.08;104409;1257;60456;-63
2023/06/21 07:16:08;;;;;;;19.40;17.50;;;;;;;25.13;100.00;99727.50;104282;1264;73621;-61
2023/06/21 07:18:36;;;;;;;19.40;17.70;;;;;;;25.17;100.00;99728.04;105870;1250;69130;-62
2023/06/21 07:21:04;;;;;;;19.70;17.60;;;;;;;25.22;100.00;99728.19;108429;1250;73385;-62
2023/06/21 07:23:31;;;;;;;19.70;17.80;;;;;;;25.28;100.00;99731.63;106101;1254;61372;-62
2023/06/21 07:25:59;;;;;;;24.50;16.70;;;;;;;25.30;100.00;99729.69;104585;1257;60548;-61
2023/06/21 07:28:27;;;;;;;20.40;17.40;;;;;;;25.31;100.00;99729.02;104654;1271;73603;-61
2023/06/21 07:30:55;;;;;;;18.60;16.90;;;;;;;25.33;100.00;99725.39;104941;1256;69675;-61
2023/06/21 07:33:23;;;;;;;18.20;16.30;;;;;;;25.41;100.00;99726.33;104943;1255;71649;-61
2023/06/21 07:35:51;;;;;;;;;;;;;;;25.47;100.00;99730.52;104351;1256;61855;-61
2023/06/21 07:38:19;;;;;;;18.10;15.70;;;;;;;25.55;100.00;99734.35;104499;1258;60449;-60
2023/06/21 07:40:46;;;;;;;18.20;16.20;;;;;;;25.62;100.00;99733.23;104409;1256;73835;-60
2023/06/21 07:43:14;;;;;;;17.60;15.90;;;;;;;25.70;100.00;99736.09;104475;1256;69038;-60
2023/06/21 07:45:42;;;;;;;;;;;;;;;25.76;100.00;99733.30;104448;1257;73332;-61
2023/06/21 07:48:10;;;;;;;;;;;;;;;25.86;100.00;99730.98;104320;1257;61593;-61
2023/06/21 07:50:39;;;;;;;15.40;14.00;;;;;;;25.98;100.00;99735.28;104448;1257;59906;-61
2023/06/21 07:53:07;;;;;;;15.20;13.80;;;;;;;26.09;100.00;99728.17;104368;1256;74502;-60
2023/06/21 07:55:34;;;;;;;;;;;;;;;26.22;100.00;99732.15;104551;1255;69186;-61
2023/06/21 07:58:02;;;;;;;15.60;13.80;;;;;;;26.39;100.00;99733.80;104470;1256;72440;-61
2023/06/21 08:00:30;;;;;;;;;;;;;;;26.55;100.00;99726.32;104425;1257;61773;-65
2023/06/21 08:02:58;;;;;;;13.90;12.40;;;;;;;26.68;100.00;99723.89;104466;1250;60559;-62
2023/06/21 08:05:26;;;;;;;13.90;12.70;;;;;;;26.74;100.00;99721.77;104501;1257;74464;-61
2023/06/21 08:07:56;;;;;;;14.70;13.20;;;;;;;26.75;100.00;99725.17;104537;1265;69034;-61
2023/06/21 08:10:24;;;;;;;15.90;14.50;;;;;;;26.72;100.00;99721.90;104571;1251;72781;-62
2023/06/21 08:12:51;;;;;;;;;;;;;;;26.75;100.00;99723.04;104555;1251;60635;-62
2023/06/21 08:15:19;;;;;;;16.80;14.50;;;;;;;26.84;100.00;99721.77;104619;1254;60480;-62
2023/06/21 08:17:48;;;;;;;14.40;13.10;;;;;;;26.88;100.00;99723.32;104370;1257;74565;-62
2023/06/21 08:20:16;;;;;;;13.60;12.50;;;;;;;26.89;100.00;99717.92;104355;1260;69606;-62
2023/06/21 08:22:44;;;;;;;14.00;12.70;;;;;;;26.93;100.00;99711.45;104507;1254;72435;-61
2023/06/21 08:25:12;;;;;;;13.90;12.50;;;;;;;26.93;100.00;99717.89;104473;1256;60764;-62
2023/06/21 15:04:34;;;;;;;8.20;7.30;;;;;;;32.00;60.47;99660.10;101492;1294;601536;-62
2023/06/21 15:07:02;;;;;;;7.80;7.00;;;;;;;31.99;62.20;99660.96;103707;1272;59767;-63
2023/06/21 15:09:30;;;;;;;18.90;8.70;;;;;;;31.70;64.74;99665.73;103629;1278;59734;-62
2023/06/21 15:11:58;;;;;;;8.80;6.80;;;;;;;31.37;64.92;99667.58;103700;1267;72064;-64
2023/06/21 15:14:27;;;;;;;7.40;6.70;;;;;;;31.11;63.59;99670.05;104028;1263;69149;-64
2023/06/21 15:16:56;;;;;;;8.20;6.80;;;;;;;30.91;68.91;99672.41;103977;1261;72451;-64
2023/06/21 15:19:24;;;;;;;12.10;7.00;;;;;;;30.75;71.22;99674.64;104099;1261;209910;-63
2023/06/21 15:21:52;;;;;;;7.40;6.70;;;;;;;30.58;69.90;99676.59;104252;1267;59628;-63
2023/06/21 15:24:20;;;;;;;6.70;6.10;;;;;;;30.72;67.28;99675.28;107929;1257;71859;-62
2023/06/21 15:26:48;;;;;;;9.30;6.30;;;;;;;30.76;66.97;99675.78;107014;1257;69209;-62
2023/06/21 15:29:16;;;;;;;7.60;6.90;;;;;;;30.73;64.79;99678.88;104120;1267;73943;-63
2023/06/21 15:31:43;;;;;;;10.20;7.00;;;;;;;30.58;61.23;99679.00;104667;1260;59975;-63
2023/06/21 15:34:12;;;;;;;;;;;;;;;30.43;64.59;99677.57;104712;1261;59691;-63
2023/06/21 15:36:41;;;;;;;7.60;6.80;;;;;;;30.37;66.18;99681.27;104242;1263;73461;-64
2023/06/21 15:39:09;;;;;;;8.10;6.30;;;;;;;30.67;64.15;99679.46;104402;1258;69077;-62
2023/06/21 15:41:37;;;;;;;7.30;6.40;;;;;;;31.01;61.55;99674.42;104332;1276;73358;-62
2023/06/21 15:44:05;;;;;;;8.60;6.90;;;;;;;31.30;58.02;99670.04;104163;1258;60696;-61
2023/06/21 15:46:33;;;;;;;7.40;6.70;;;;;;;31.58;54.90;99671.46;104612;1256;59739;-62
2023/06/21 15:49:01;;;;;;;7.40;6.30;;;;;;;31.81;54.06;99668.18;104253;1259;72959;-61
2023/06/21 15:51:28;;;;;;;7.60;6.90;;;;;;;31.84;52.60;99672.04;104261;1270;69041;-61
2023/06/21 15:53:56;;;;;;;10.00;6.90;;;;;;;31.63;54.97;99672.45;104369;1265;72394;-61
2023/06/21 15:56:24;;;;;;;8.70;7.20;;;;;;;31.68;55.73;99674.86;104306;1257;59789;-62
2023/06/21 15:58:53;;;;;;;8.10;6.40;;;;;;;31.81;56.58;99680.94;104422;1256;60264;-61
2023/06/21 16:01:20;;;;;;;7.60;6.40;;;;;;;31.69;56.65;99683.39;104384;1273;72888;-61
